Time;durP1;ratioP1;P1;durP2;ratioP2;P2;SDS_P1;SDS_P2;PMS_P1;PMS_P2;Temp;Humidity;BMP_temperature;BMP_pressure;BME280_temperature;BME280_humidity;BME280_pressure;Samples;Min_cycle;Max_cycle;Signal;HPM_P1;HPM_P2
2022/07/06 00:01:33;;;;;;;30.77;26.30;;;;;;;19.71;91.98;99543.88;5063491;28;20209;-63
2022/07/06 00:03:59;;;;;;;38.58;33.13;;;;;;;19.73;91.64;99549.03;5077539;28;20039;-63
2022/07/06 00:06:24;;;;;;;36.08;31.90;;;;;;;19.74;91.88;99542.81;5083770;28;20025;-63
2022/07/06 00:08:50;;;;;;;39.38;32.72;;;;;;;19.73;91.65;99544.63;5078927;28;20036;-63
2022/07/06 00:11:16;;;;;;;46.78;35.28;;;;;;;19.67;91.31;99550.25;5063596;28;20025;-63
2022/07/06 00:13:42;;;;;;;56.65;48.40;;;;;;;19.66;91.63;99536.25;5065450;28;20103;-62
2022/07/06 00:16:07;;;;;;;56.90;48.10;;;;;;;19.59;91.98;99528.88;5083272;28;20328;-62
2022/07/06 00:18:33;;;;;;;79.18;68.32;;;;;;;19.48;91.69;99503.25;5073189;28;20123;-63
2022/07/06 00:20:58;;;;;;;132.60;115.10;;;;;;;19.65;92.04;99534.59;5045370;28;20234;-63
2022/07/06 00:23:24;;;;;;;170.88;149.65;;;;;;;19.58;91.74;99522.78;5063814;28;20025;-63
2022/07/06 00:25:49;;;;;;;160.48;137.63;;;;;;;19.67;91.96;99534.50;5083478;28;20047;-61
2022/07/06 00:28:15;;;;;;;148.07;126.35;;;;;;;19.68;92.05;99530.91;5083385;28;20035;-61
2022/07/06 00:30:41;;;;;;;148.40;131.98;;;;;;;19.64;91.75;99516.28;5071800;28;20199;-62
2022/07/06 00:33:07;;;;;;;139.02;123.28;;;;;;;19.63;92.10;99517.22;5062557;28;20371;-61
2022/07/06 00:35:33;;;;;;;103.15;92.05;;;;;;;19.64;92.08;99518.94;5064850;28;20047;-62
2022/07/06 00:37:58;;;;;;;108.72;96.78;;;;;;;19.67;91.68;99518.72;5077893;28;20041;-62
2022/07/06 00:40:24;;;;;;;105.18;90.53;;;;;;;19.64;91.64;99522.38;5063242;28;20029;-63
2022/07/06 00:42:49;;;;;;;73.30;64.53;;;;;;;19.58;91.45;99516.66;5062985;28;20213;-63
2022/07/06 00:45:16;;;;;;;67.43;59.55;;;;;;;19.58;91.53;99524.53;5068023;28;20028;-62
2022/07/06 00:47:42;;;;;;;55.55;47.53;;;;;;;19.52;91.73;99524.94;5062895;28;20036;-62
2022/07/06 00:50:13;;;;;;;50.17;42.38;;;;;;;19.25;91.69;99488.91;5063071;28;20273;-62
2022/07/06 00:52:40;;;;;;;51.80;44.00;;;;;;;19.56;91.55;99532.50;5062877;28;20044;-62
2022/07/06 00:55:06;;;;;;;52.85;47.10;;;;;;;19.50;91.66;99522.41;5062611;28;20025;-63
2022/07/06 00:57:32;;;;;;;60.30;53.88;;;;;;;19.57;91.89;99531.59;5072630;28;20104;-64
2022/07/06 00:59:58;;;;;;;62.78;55.63;;;;;;;19.55;91.95;99522.09;5077630;28;20024;-61
2022/07/06 01:02:24;;;;;;;63.15;55.88;;;;;;;19.52;92.23;99523.13;5062707;28;20036;-62
2022/07/06 01:04:50;;;;;;;72.85;63.10;;;;;;;19.56;91.52;99531.69;5062656;28;20033;-62
2022/07/06 01:07:15;;;;;;;69.78;59.80;;;;;;;19.52;91.78;99525.75;5062766;28;20333;-62
2022/07/06 01:09:42;;;;;;;69.72;58.25;;;;;;;19.55;91.61;99527.34;5062593;28;20036;-63
2022/07/06 01:12:08;;;;;;;69.07;59.88;;;;;;;19.56;91.54;99534.31;5062501;28;20036;-62
2022/07/06 01:14:35;;;;;;;56.22;48.50;;;;;;;19.45;91.54;99524.44;5062493;28;20025;-62
2022/07/06 01:17:01;;;;;;;54.65;46.00;;;;;;;19.49;91.86;99534.66;5062799;28;20044;-62
2022/07/06 01:19:27;;;;;;;59.95;50.10;;;;;;;19.48;91.80;99527.75;5062543;28;20314;-63
2022/07/06 01:21:52;;;;;;;61.80;53.28;;;;;;;19.52;91.96;99530.19;5074987;28;20024;-63
2022/07/06 01:24:18;;;;;;;56.83;50.15;;;;;;;19.47;91.82;99533.94;5082732;28;20241;-64
2022/07/06 01:26:44;;;;;;;55.63;47.28;;;;;;;19.53;91.91;99540.59;5082678;28;20078;-64
2022/07/06 01:29:10;;;;;;;57.63;47.92;;;;;;;19.53;91.64;99535.34;5070734;28;20040;-64
2022/07/06 01:31:45;;;;;;;54.15;46.05;;;;;;;19.55;92.53;99533.44;5066561;28;20025;-63
2022/07/06 01:34:11;;;;;;;52.38;44.10;;;;;;;19.56;91.56;99534.31;5066385;28;20028;-63
2022/07/06 01:36:36;;;;;;;48.83;42.78;;;;;;;19.57;91.45;99536.84;5076493;28;20032;-64
2022/07/06 01:39:02;;;;;;;50.67;42.08;;;;;;;19.54;91.72;99536.16;5072465;28;20043;-64
2022/07/06 01:41:28;;;;;;;48.03;41.05;;;;;;;19.55;92.22;99536.06;5066025;28;20035;-62
2022/07/06 01:43:53;;;;;;;46.88;38.10;;;;;;;19.49;92.23;99521.53;5066297;28;20017;-61
2022/07/06 01:46:19;;;;;;;44.35;38.67;;;;;;;19.59;92.23;99550.72;5053055;28;20100;-61
2022/07/06 01:48:45;;;;;;;45.08;39.67;;;;;;;19.55;92.16;99535.25;5077345;28;20024;-61
2022/07/06 01:51:11;;;;;;;42.53;36.63;;;;;;;19.60;91.76;99556.84;5086195;28;20036;-62
2022/07/06 01:53:37;;;;;;;43.97;36.33;;;;;;;19.54;92.24;99544.06;5085248;28;20325;-62
2022/07/06 01:56:04;;;;;;;40.42;34.42;;;;;;;19.51;92.38;99539.84;5066361;28;20029;-61
2022/07/06 01:58:29;;;;;;;42.20;35.47;;;;;;;19.59;92.06;99542.00;5083290;28;20374;-61
2022/07/06 02:00:55;;;;;;;41.20;34.63;;;;;;;19.59;92.45;99537.56;5085931;28;20028;-61
2022/07/06 02:03:20;;;;;;;42.25;37.15;;;;;;;19.63;92.72;99533.00;5085957;28;20035;-61
2022/07/06 02:05:46;;;;;;;45.10;36.85;;;;;;;19.61;92.67;99532.22;5082734;28;20021;-64
2022/07/06 02:08:11;;;;;;;39.65;34.35;;;;;;;19.67;92.56;99526.63;5065675;28;20021;-62
2022/07/06 02:10:37;;;;;;;39.92;33.53;;;;;;;19.69;92.82;99540.47;5065386;28;20031;-62
2022/07/06 02:13:02;;;;;;;38.22;32.97;;;;;;;19.69;92.72;99544.91;5066046;28;20080;-62
2022/07/06 02:15:28;;;;;;;41.88;33.47;;;;;;;19.71;92.83;99548.28;5065595;28;20035;-62
2022/07/06 02:17:54;;;;;;;36.40;30.42;;;;;;;19.66;92.82;99548.56;5065757;28;20206;-62
2022/07/06 02:20:19;;;;;;;34.85;28.88;;;;;;;19.66;92.87;99546.78;5065753;28;20218;-62
2022/07/06 02:22:45;;;;;;;32.55;27.15;;;;;;;19.74;92.77;99555.97;5065558;28;20021;-62
2022/07/06 02:25:10;;;;;;;34.45;28.83;;;;;;;19.79;93.32;99562.66;5066320;28;20314;-61
2022/07/06 02:27:36;;;;;;;32.40;28.88;;;;;;;19.81;93.27;99566.06;5065404;28;20028;-61
2022/07/06 02:30:01;;;;;;;38.97;30.77;;;;;;;19.86;92.94;99567.56;5065429;28;20213;-61
2022/07/06 02:32:29;;;;;;;32.85;28.38;;;;;;;19.79;93.13;99562.66;5066052;28;20036;-61
2022/07/06 02:34:55;;;;;;;31.48;26.50;;;;;;;19.82;93.18;99559.00;5085231;28;20028;-61
2022/07/06 02:37:20;;;;;;;34.90;30.23;;;;;;;19.87;93.59;99561.38;5069022;28;20037;-61
2022/07/06 02:39:46;;;;;;;36.00;32.17;;;;;;;19.90;93.63;99558.53;5063741;28;20051;-61
2022/07/06 02:42:11;;;;;;;34.70;30.02;;;;;;;19.93;93.06;99567.06;5064542;28;20318;-63
2022/07/06 02:44:37;;;;;;;31.77;28.10;;;;;;;19.89;93.08;99565.56;5065089;28;20035;-63
2022/07/06 02:47:03;;;;;;;28.90;25.98;;;;;;;19.88;93.22;99566.53;5064963;28;20032;-62
2022/07/06 02:49:28;;;;;;;29.80;25.88;;;;;;;19.94;93.20;99565.31;5065032;28;20029;-61
2022/07/06 02:51:54;;;;;;;28.20;25.23;;;;;;;19.99;92.90;99566.69;5064923;28;20070;-62
2022/07/06 02:54:19;;;;;;;33.63;27.80;;;;;;;20.06;93.35;99572.41;5080458;28;20310;-62
2022/07/06 02:56:50;;;;;;;34.25;28.63;;;;;;;20.11;92.99;99567.72;5065084;28;20026;-62
2022/07/06 02:59:16;;;;;;;34.55;28.05;;;;;;;20.17;92.74;99564.69;5064893;28;20350;-63
2022/07/06 03:01:42;;;;;;;30.23;27.13;;;;;;;20.17;92.85;99550.69;5083568;28;20039;-64
2022/07/06 03:04:07;;;;;;;28.77;25.80;;;;;;;20.29;92.60;99563.03;5070885;28;20380;-64
2022/07/06 03:06:33;;;;;;;28.75;25.33;;;;;;;20.34;92.40;99566.22;5064672;28;20028;-64
2022/07/06 03:08:58;;;;;;;27.73;24.67;;;;;;;20.36;92.58;99563.50;5069007;28;20028;-64
2022/07/06 03:11:24;;;;;;;28.10;25.15;;;;;;;20.42;92.86;99565.75;5084571;28;20020;-64
2022/07/06 03:13:49;;;;;;;26.27;23.45;;;;;;;20.44;92.60;99552.50;5064925;28;20036;-65
2022/07/06 03:16:15;;;;;;;31.23;25.23;;;;;;;20.53;93.00;99558.00;5064412;28;20286;-65
2022/07/06 03:18:40;;;;;;;39.90;28.15;;;;;;;20.66;93.07;99551.94;5064453;28;20028;-65
2022/07/06 03:21:06;;;;;;;33.20;26.75;;;;;;;20.50;92.38;99492.41;5064362;28;20046;-65
2022/07/06 03:23:32;;;;;;;34.08;28.10;;;;;;;20.84;92.67;99531.50;5046606;28;20025;-63
2022/07/06 03:25:57;;;;;;;31.38;26.73;;;;;;;20.98;92.92;99546.38;5064412;28;20028;-63
2022/07/06 03:28:23;;;;;;;31.98;26.48;;;;;;;20.98;92.64;99527.94;5062288;28;20032;-62
2022/07/06 03:30:48;;;;;;;32.67;26.85;;;;;;;21.14;92.14;99543.53;5073022;28;20383;-63
2022/07/06 03:33:14;;;;;;;33.78;27.23;;;;;;;21.17;92.20;99545.97;5046555;28;20027;-63
2022/07/06 03:35:39;;;;;;;29.42;25.60;;;;;;;21.26;91.87;99553.22;5064026;28;20035;-63
2022/07/06 03:38:05;;;;;;;29.90;26.63;;;;;;;21.37;91.95;99552.50;5064058;28;20037;-63
2022/07/06 03:40:30;;;;;;;29.85;26.83;;;;;;;21.48;90.63;99549.16;5064188;28;20075;-63
2022/07/06 03:42:56;;;;;;;29.50;26.33;;;;;;;21.53;90.26;99547.91;5063927;28;20017;-65
2022/07/06 03:45:22;;;;;;;29.05;25.98;;;;;;;21.55;90.55;99539.91;5063792;28;20024;-63
2022/07/06 03:47:47;;;;;;;32.63;26.88;;;;;;;21.59;90.32;99540.50;5063937;28;20048;-63
2022/07/06 03:50:13;;;;;;;29.02;25.83;;;;;;;21.62;89.48;99543.78;5063728;28;20309;-63
2022/07/06 03:52:39;;;;;;;28.38;25.48;;;;;;;21.64;88.81;99544.50;5063756;28;20370;-63
2022/07/06 03:55:14;;;;;;;28.17;25.42;;;;;;;21.69;88.04;99545.03;5046130;28;20036;-64
2022/07/06 03:57:40;;;;;;;30.20;27.30;;;;;;;21.70;88.09;99545.88;5063843;28;20066;-64
2022/07/06 04:00:08;;;;;;;29.17;26.15;;;;;;;21.78;88.03;99555.91;5063470;28;20024;-64
2022/07/06 04:02:33;;;;;;;26.77;24.25;;;;;;;21.86;87.25;99543.84;5063626;28;20071;-64
2022/07/06 04:04:59;;;;;;;27.10;24.33;;;;;;;21.94;88.10;99550.38;5063433;28;20025;-65
2022/07/06 04:07:25;;;;;;;30.02;25.67;;;;;;;21.97;87.59;99555.44;5063439;28;20040;-64
2022/07/06 04:09:51;;;;;;;26.60;23.77;;;;;;;22.05;86.89;99553.91;5074502;28;20029;-64
2022/07/06 04:12:16;;;;;;;26.15;23.45;;;;;;;22.13;85.01;99553.34;5076776;28;20187;-64
2022/07/06 04:14:43;;;;;;;26.27;23.52;;;;;;;22.19;84.10;99550.31;5063307;28;20333;-64
2022/07/06 04:19:53;;;;;;;26.25;23.52;;;;;;;22.33;84.10;99556.41;5061892;28;20047;-65
2022/07/06 04:22:18;;;;;;;23.75;21.30;;;;;;;22.38;82.79;99556.91;5062787;28;20033;-64
2022/07/06 04:24:44;;;;;;;24.92;22.45;;;;;;;22.45;83.29;99555.50;5062431;28;20027;-64
2022/07/06 04:27:09;;;;;;;23.25;20.70;;;;;;;22.52;82.83;99546.19;5062435;28;20021;-64
2022/07/06 04:29:35;;;;;;;25.67;23.15;;;;;;;22.54;83.36;99549.53;5062513;28;20025;-64
2022/07/06 04:32:01;;;;;;;23.73;21.27;;;;;;;22.57;82.00;99559.91;5062577;28;20052;-66
2022/07/06 04:34:26;;;;;;;24.65;22.15;;;;;;;22.63;83.03;99555.97;5062511;28;20033;-66
2022/07/06 04:36:52;;;;;;;22.80;20.55;;;;;;;22.68;82.64;99553.81;5059578;28;20025;-66
2022/07/06 04:39:18;;;;;;;24.23;21.73;;;;;;;22.73;82.85;99548.19;5062389;28;20025;-66
2022/07/06 04:41:43;;;;;;;26.70;24.02;;;;;;;22.83;82.28;99550.97;5063831;28;20047;-65
2022/07/06 04:44:09;;;;;;;25.55;22.90;;;;;;;22.82;79.90;99552.78;5062265;28;20029;-64
2022/07/06 04:46:34;;;;;;;26.00;23.23;;;;;;;22.97;82.25;99552.59;5044178;28;20032;-64
2022/07/06 04:49:00;;;;;;;24.45;22.17;;;;;;;22.95;82.49;99547.44;5062609;28;20025;-65
2022/07/06 04:51:25;;;;;;;25.38;22.90;;;;;;;22.94;80.03;99556.31;5062345;28;20025;-65
2022/07/06 04:53:51;;;;;;;23.95;21.30;;;;;;;22.98;78.32;99549.00;5062415;28;20310;-64
2022/07/06 04:56:16;;;;;;;24.30;21.83;;;;;;;23.07;78.77;99543.88;5062173;28;20090;-64
2022/07/06 04:58:42;;;;;;;22.50;20.20;;;;;;;23.18;78.52;99543.06;5044602;28;20218;-64
2022/07/06 05:01:07;;;;;;;23.60;21.30;;;;;;;23.20;79.05;99545.59;5062082;28;20070;-64
2022/07/06 05:03:36;;;;;;;22.58;20.20;;;;;;;23.27;78.71;99545.00;5061394;28;20021;-64
2022/07/06 05:06:05;;;;;;;24.02;21.52;;;;;;;23.35;78.40;99535.66;5061965;28;20037;-65
2022/07/06 05:08:30;;;;;;;21.35;19.33;;;;;;;23.50;78.42;99546.81;5062000;28;20087;-64
2022/07/06 05:10:56;;;;;;;24.33;21.55;;;;;;;23.58;78.66;99539.16;5064512;28;20025;-64
2022/07/06 05:13:21;;;;;;;20.80;18.42;;;;;;;23.71;78.40;99544.31;5067906;28;20043;-65
2022/07/06 05:15:47;;;;;;;20.73;18.65;;;;;;;23.78;75.75;99542.84;5062418;28;20065;-66
2022/07/06 05:18:12;;;;;;;21.20;19.05;;;;;;;23.93;76.69;99541.69;5024585;28;20036;-66
2022/07/06 05:20:38;;;;;;;19.23;17.23;;;;;;;24.05;76.03;99536.38;5043219;28;20027;-67
2022/07/06 05:23:03;;;;;;;21.35;19.15;;;;;;;24.09;75.55;99535.16;5082705;28;20183;-66
2022/07/06 05:25:30;;;;;;;19.83;17.83;;;;;;;24.18;74.81;99531.75;5064221;28;20199;-67
2022/07/06 05:27:55;;;;;;;21.95;19.27;;;;;;;24.28;73.70;99532.72;5068927;28;20029;-64
2022/07/06 05:30:21;;;;;;;18.95;17.05;;;;;;;24.38;73.38;99537.25;5068674;28;20094;-62
2022/07/06 05:32:46;;;;;;;24.33;18.33;;;;;;;24.48;73.28;99540.81;5082343;28;20036;-63
2022/07/06 05:35:12;;;;;;;21.08;18.60;;;;;;;24.53;74.17;99535.16;5064463;28;20076;-63
2022/07/06 05:37:38;;;;;;;20.02;17.98;;;;;;;24.55;75.02;99536.69;5065265;28;20052;-63
2022/07/06 05:40:04;;;;;;;20.90;19.00;;;;;;;24.57;72.60;99532.13;5062301;28;20033;-63
2022/07/06 05:42:29;;;;;;;23.40;20.90;;;;;;;24.61;73.07;99530.94;5062356;28;20025;-63
2022/07/06 05:44:56;;;;;;;20.42;18.52;;;;;;;24.55;70.71;99528.75;5062225;28;20022;-63
2022/07/06 05:50:13;;;;;;;19.85;17.65;;;;;;;24.72;71.87;99535.34;5062292;28;20052;-63
2022/07/06 05:52:39;;;;;;;24.85;22.05;;;;;;;24.77;72.40;99538.44;5062079;28;20047;-63
2022/07/06 05:55:05;;;;;;;24.90;21.88;;;;;;;24.84;70.22;99535.28;5056420;28;20274;-62
2022/07/06 05:57:31;;;;;;;21.17;19.20;;;;;;;24.97;72.98;99535.94;5056534;28;20032;-64
2022/07/06 05:59:57;;;;;;;22.33;20.13;;;;;;;24.95;72.80;99528.09;5062230;28;20226;-62
2022/07/06 06:02:22;;;;;;;23.25;20.83;;;;;;;24.94;69.80;99531.75;5043950;28;20040;-63
2022/07/06 06:04:48;;;;;;;21.52;19.17;;;;;;;25.07;70.94;99530.69;5025601;28;20017;-63
2022/07/06 06:07:14;;;;;;;25.10;20.52;;;;;;;25.15;70.57;99530.88;5043748;28;20025;-60
2022/07/06 06:09:39;;;;;;;24.02;20.63;;;;;;;25.24;69.93;99527.47;5061287;28;20074;-60
2022/07/06 06:12:05;;;;;;;23.77;20.17;;;;;;;25.28;69.98;99525.38;5060989;28;20028;-60
2022/07/06 06:14:31;;;;;;;23.88;21.38;;;;;;;25.43;69.59;99528.56;5063859;28;20373;-60
2022/07/06 06:16:57;;;;;;;24.55;22.10;;;;;;;25.47;70.21;99527.34;5066233;28;20078;-61
2022/07/06 06:19:22;;;;;;;27.02;24.23;;;;;;;25.45;69.41;99527.47;5065222;28;20057;-61
2022/07/06 06:21:48;;;;;;;27.20;24.50;;;;;;;25.50;68.67;99527.06;5065108;28;20028;-61
2022/07/06 06:24:13;;;;;;;22.33;19.67;;;;;;;25.59;69.11;99520.94;5065284;28;20082;-62
2022/07/06 06:26:39;;;;;;;23.20;20.90;;;;;;;25.70;69.45;99517.38;5047058;28;20020;-61
2022/07/06 06:29:05;;;;;;;23.88;21.17;;;;;;;25.75;69.12;99523.13;5065139;28;20020;-62
2022/07/06 06:31:30;;;;;;;27.20;24.08;;;;;;;25.81;69.63;99525.22;5064966;28;20199;-62
2022/07/06 06:33:56;;;;;;;24.92;21.70;;;;;;;25.74;69.01;99520.56;5065190;28;20020;-61
2022/07/06 06:36:21;;;;;;;27.25;23.60;;;;;;;25.91;69.48;99517.28;5064816;28;20337;-61
2022/07/06 06:38:47;;;;;;;28.08;25.25;;;;;;;25.80;67.87;99515.56;5064387;28;20032;-60
2022/07/06 06:41:13;;;;;;;26.00;23.30;;;;;;;25.93;68.20;99523.28;5064752;28;20074;-61
2022/07/06 06:43:39;;;;;;;33.38;25.60;;;;;;;25.92;68.09;99518.94;5064709;28;20017;-61
2022/07/06 06:46:04;;;;;;;28.55;24.60;;;;;;;25.85;67.55;99483.31;5046650;28;20025;-61
2022/07/06 06:48:31;;;;;;;30.10;25.33;;;;;;;26.07;67.74;99511.47;5065855;28;20021;-61
2022/07/06 06:50:57;;;;;;;23.55;21.30;;;;;;;26.25;67.59;99509.00;5064440;28;20024;-61
2022/07/06 06:53:22;;;;;;;25.98;21.48;;;;;;;26.29;68.59;99513.03;5064425;28;20063;-61
2022/07/06 06:55:48;;;;;;;27.40;23.25;;;;;;;26.21;66.27;99512.06;5064387;28;20318;-60
2022/07/06 06:58:14;;;;;;;26.60;22.63;;;;;;;26.21;68.10;99510.25;5061862;28;20040;-61
2022/07/06 07:00:39;;;;;;;25.88;23.08;;;;;;;26.29;67.16;99507.72;5064339;28;20021;-60
2022/07/06 07:03:05;;;;;;;25.17;21.45;;;;;;;26.26;66.56;99515.97;5064326;28;20215;-63
2022/07/06 07:05:30;;;;;;;22.30;19.90;;;;;;;26.43;66.09;99510.97;5064390;28;20025;-63
2022/07/06 07:07:58;;;;;;;23.30;20.90;;;;;;;26.45;65.98;99507.19;5064435;28;20073;-62
2022/07/06 07:10:25;;;;;;;26.67;22.40;;;;;;;26.41;64.74;99508.44;5079011;28;20032;-62
2022/07/06 07:12:51;;;;;;;27.55;22.02;;;;;;;26.43;64.81;99509.13;5057004;28;20047;-62
2022/07/06 07:15:17;;;;;;;24.13;18.58;;;;;;;26.62;64.88;99516.28;5064415;28;20314;-62
2022/07/06 07:17:42;;;;;;;24.58;21.98;;;;;;;26.58;64.28;99517.53;5064592;28;20028;-62
2022/07/06 07:20:09;;;;;;;25.67;23.10;;;;;;;26.60;63.82;99509.44;5064477;28;20322;-63
2022/07/06 07:22:34;;;;;;;24.35;21.95;;;;;;;26.68;64.40;99505.13;5064524;28;20283;-63
2022/07/06 07:25:00;;;;;;;22.42;19.00;;;;;;;26.82;65.42;99511.81;5063428;28;20029;-63
2022/07/06 07:27:26;;;;;;;21.52;19.42;;;;;;;26.90;65.30;99511.09;5064298;28;20025;-63
2022/07/06 07:29:53;;;;;;;25.50;23.02;;;;;;;26.90;63.69;99516.41;5064403;28;20041;-63
2022/07/06 07:32:19;;;;;;;22.35;20.02;;;;;;;26.99;65.28;99512.91;5064426;28;20148;-63
2022/07/06 07:34:45;;;;;;;21.45;19.23;;;;;;;27.15;64.89;99511.44;5064228;28;20024;-63
2022/07/06 07:37:11;;;;;;;22.63;19.80;;;;;;;27.13;65.38;99508.09;5075851;28;20086;-64
2022/07/06 07:39:36;;;;;;;23.27;19.02;;;;;;;27.25;65.37;99506.09;5031120;28;20049;-64
2022/07/06 07:42:02;;;;;;;18.27;16.42;;;;;;;27.12;61.69;99506.41;5063673;28;20037;-63
2022/07/06 07:44:27;;;;;;;18.30;16.27;;;;;;;27.23;63.43;99502.75;5063482;28;20029;-62
2022/07/06 07:46:53;;;;;;;19.08;16.48;;;;;;;27.21;62.24;99509.06;5062949;28;20035;-63
2022/07/06 07:49:20;;;;;;;18.95;16.20;;;;;;;27.37;61.97;99495.16;5045429;28;20241;-63
2022/07/06 07:51:47;;;;;;;16.55;14.88;;;;;;;27.49;61.38;99503.81;5063367;28;20031;-63
2022/07/06 07:54:13;;;;;;;20.13;17.23;;;;;;;27.48;60.12;99498.66;5063187;28;20079;-63
2022/07/06 07:56:40;;;;;;;19.95;17.65;;;;;;;27.43;61.05;99508.88;5063082;28;20087;-62
2022/07/06 07:59:06;;;;;;;21.75;19.40;;;;;;;27.38;61.82;99496.84;5063324;28;20021;-62
2022/07/06 08:01:32;;;;;;;24.45;16.95;;;;;;;27.50;62.94;99496.66;5062715;28;20045;-62
2022/07/06 08:03:58;;;;;;;21.67;19.27;;;;;;;27.52;62.33;99505.34;5063534;28;20024;-62
2022/07/06 08:06:24;;;;;;;19.98;17.83;;;;;;;27.55;62.17;99497.91;5063571;28;20022;-62
2022/07/06 08:08:49;;;;;;;18.60;16.58;;;;;;;27.47;61.35;99507.63;5063802;28;20095;-62
2022/07/06 08:11:15;;;;;;;20.00;17.90;;;;;;;27.31;61.11;99501.06;5063642;28;20337;-62
2022/07/06 08:13:41;;;;;;;21.50;19.35;;;;;;;27.13;60.04;99498.31;5063728;28;20084;-62
2022/07/06 08:16:08;;;;;;;19.25;17.23;;;;;;;27.16;60.48;99498.03;5045739;28;20050;-62
2022/07/06 08:18:33;;;;;;;19.90;16.85;;;;;;;27.24;62.03;99499.13;5062906;28;20360;-62
2022/07/06 08:20:59;;;;;;;19.23;17.23;;;;;;;27.14;61.82;99499.16;5045650;28;20036;-62
2022/07/06 08:23:25;;;;;;;18.75;16.85;;;;;;;26.98;61.22;99494.41;5063041;28;20067;-62
2022/07/06 08:25:50;;;;;;;21.75;16.73;;;;;;;27.07;62.84;99503.38;5063370;28;20024;-62
2022/07/06 08:28:16;;;;;;;23.38;17.52;;;;;;;27.00;61.88;99503.09;5062446;28;20329;-63
2022/07/06 08:30:41;;;;;;;18.63;16.67;;;;;;;26.95;62.51;99503.53;5062876;28;20078;-63
2022/07/06 08:33:07;;;;;;;18.65;16.85;;;;;;;26.90;62.88;99497.81;5062720;28;20082;-63
2022/07/06 08:35:32;;;;;;;19.88;17.35;;;;;;;26.79;64.27;99505.94;5062820;28;20331;-63
2022/07/06 08:37:58;;;;;;;24.27;19.10;;;;;;;26.79;63.36;99506.75;5062166;28;20333;-63
2022/07/06 08:40:26;;;;;;;21.90;18.20;;;;;;;26.77;63.88;99511.41;5062250;28;20033;-63
2022/07/06 08:42:54;;;;;;;21.13;18.75;;;;;;;26.48;63.99;99467.06;5062640;28;20361;-62
2022/07/06 08:45:20;;;;;;;21.65;19.45;;;;;;;26.78;64.65;99509.56;5044412;28;20032;-62
2022/07/06 08:47:49;;;;;;;21.80;19.55;;;;;;;26.81;64.50;99506.66;5062687;28;20063;-62
2022/07/06 08:50:16;;;;;;;22.30;20.10;;;;;;;26.90;64.64;99505.78;5059715;28;20217;-62
2022/07/06 08:52:42;;;;;;;25.80;23.23;;;;;;;26.86;63.86;99499.06;5062771;28;20088;-62
2022/07/06 08:55:11;;;;;;;24.90;22.23;;;;;;;26.95;63.52;99494.72;5062434;28;20357;-63
2022/07/06 08:57:39;;;;;;;22.70;19.67;;;;;;;27.00;64.58;99501.28;5061173;28;20051;-63
2022/07/06 09:00:08;;;;;;;24.73;22.08;;;;;;;26.82;63.78;99460.47;5062184;28;20344;-62
2022/07/06 09:02:35;;;;;;;24.00;19.40;;;;;;;26.99;65.92;99494.31;5062658;28;20210;-61
2022/07/06 09:05:02;;;;;;;25.25;21.88;;;;;;;27.00;63.45;99487.97;5062230;28;20036;-61
2022/07/06 09:07:30;;;;;;;27.30;24.42;;;;;;;27.06;63.23;99494.53;5062520;28;20017;-61
2022/07/06 09:09:58;;;;;;;24.30;21.95;;;;;;;27.26;62.28;99487.34;5064202;28;20032;-62
2022/07/06 09:12:27;;;;;;;28.50;21.58;;;;;;;27.28;63.69;99482.72;5062063;28;20028;-62
2022/07/06 09:14:56;;;;;;;25.65;21.75;;;;;;;26.96;62.38;99440.56;5062032;28;20045;-62
2022/07/06 09:17:27;;;;;;;25.15;20.83;;;;;;;27.26;61.21;99481.19;5062134;28;20279;-62
2022/07/06 09:19:54;;;;;;;21.50;17.90;;;;;;;27.35;61.13;99435.97;5062009;28;20119;-61
2022/07/06 09:22:27;;;;;;;19.58;17.58;;;;;;;27.89;63.04;99481.34;5044248;28;20031;-61
2022/07/06 09:24:53;;;;;;;17.25;15.57;;;;;;;28.07;60.34;99469.91;5063225;28;20047;-61
2022/07/06 09:27:19;;;;;;;17.42;15.25;;;;;;;28.18;57.06;99472.34;5061934;28;20029;-61
2022/07/06 09:29:45;;;;;;;16.00;13.30;;;;;;;28.27;54.07;99473.25;5062288;28;20032;-62
2022/07/06 09:32:10;;;;;;;14.77;13.27;;;;;;;28.51;56.04;99467.28;5061953;28;20032;-64
2022/07/06 09:34:44;;;;;;;14.77;13.25;;;;;;;28.21;54.21;99439.25;5064748;28;20264;-65
2022/07/06 09:37:10;;;;;;;15.77;14.07;;;;;;;28.25;55.72;99472.56;5062198;28;20040;-62
2022/07/06 09:39:36;;;;;;;16.05;14.48;;;;;;;28.38;56.75;99472.19;5061491;28;20033;-61
2022/07/06 09:42:04;;;;;;;15.50;14.02;;;;;;;28.13;55.65;99436.50;5064035;28;20067;-63
2022/07/06 09:44:32;;;;;;;14.05;12.50;;;;;;;28.11;56.85;99431.31;5082750;28;20048;-66
2022/07/06 09:47:02;;;;;;;14.90;13.48;;;;;;;28.35;56.62;99443.19;5047858;28;20318;-65
2022/07/06 09:49:28;;;;;;;16.73;14.05;;;;;;;28.42;56.15;99462.91;5071825;28;20081;-66
2022/07/06 09:51:59;;;;;;;15.27;13.70;;;;;;;28.24;55.76;99438.94;5080947;28;20025;-65
2022/07/06 09:54:25;;;;;;;14.50;13.20;;;;;;;28.34;56.93;99468.97;5065993;28;20029;-65
2022/07/06 09:56:52;;;;;;;14.73;13.32;;;;;;;28.48;56.35;99469.44;5066302;28;20033;-64
2022/07/06 09:59:29;;;;;;;14.35;12.85;;;;;;;28.38;51.92;99441.03;5068394;28;20063;-66
2022/07/06 10:01:57;;;;;;;15.27;13.77;;;;;;;28.68;55.60;99467.47;5065646;28;20310;-65
2022/07/06 10:04:23;;;;;;;14.07;12.57;;;;;;;28.78;54.98;99460.19;5065566;28;20104;-65
2022/07/06 10:06:50;;;;;;;13.98;12.60;;;;;;;28.60;53.69;99460.19;5064495;28;20032;-65
2022/07/06 10:09:17;;;;;;;16.10;13.32;;;;;;;28.54;54.31;99456.31;5065608;28;20033;-65
2022/07/06 10:12:00;;;;;;;15.93;14.20;;;;;;;28.62;54.66;99463.59;5065674;28;20092;-65
2022/07/06 10:14:28;;;;;;;13.73;12.32;;;;;;;28.51;53.67;99416.66;5065335;28;20037;-64
2022/07/06 10:16:59;;;;;;;22.55;14.13;;;;;;;28.77;53.99;99449.69;5065284;28;20250;-65
2022/07/06 10:19:26;;;;;;;15.00;13.50;;;;;;;28.66;54.31;99440.09;5065160;28;20029;-63
2022/07/06 10:21:52;;;;;;;16.08;14.48;;;;;;;28.52;54.32;99441.50;5066683;28;20270;-65
2022/07/06 10:24:19;;;;;;;15.32;13.80;;;;;;;28.39;54.64;99417.91;5066449;28;20024;-64
2022/07/06 10:26:46;;;;;;;15.50;13.85;;;;;;;28.64;55.62;99439.44;5064857;28;20249;-65
2022/07/06 10:29:12;;;;;;;16.83;14.70;;;;;;;28.68;54.98;99441.63;5065027;28;20275;-65
2022/07/06 10:31:43;;;;;;;15.52;13.75;;;;;;;28.78;55.25;99432.72;5067158;28;20036;-66
2022/07/06 10:34:13;;;;;;;17.27;14.70;;;;;;;28.69;54.24;99406.00;5067310;28;20028;-66
2022/07/06 10:36:40;;;;;;;14.82;13.20;;;;;;;28.84;52.04;99430.22;5066744;28;20260;-64
2022/07/06 10:41:50;;;;;;;14.60;13.10;;;;;;;28.66;52.78;99432.97;5064836;28;20032;-65
2022/07/06 10:44:18;;;;;;;14.73;13.38;;;;;;;28.61;53.91;99427.22;5065963;28;20021;-64
2022/07/06 10:46:55;;;;;;;14.13;12.48;;;;;;;28.53;54.90;99436.00;5064532;28;20060;-66
2022/07/06 10:49:21;;;;;;;14.35;13.15;;;;;;;28.33;55.08;99432.69;5075304;28;20071;-62
2022/07/06 10:51:49;;;;;;;14.77;13.52;;;;;;;28.23;55.31;99429.25;5067178;28;20044;-62
2022/07/06 10:54:16;;;;;;;15.10;13.52;;;;;;;28.25;55.28;99429.97;5066319;28;20025;-62
2022/07/06 10:56:50;;;;;;;14.30;13.07;;;;;;;28.28;55.00;99419.00;5064505;28;20314;-62
2022/07/06 10:59:18;;;;;;;15.65;13.80;;;;;;;28.44;52.70;99418.28;5065255;28;20043;-62
2022/07/06 11:02:13;;;;;;;14.20;12.77;;;;;;;28.46;54.12;99421.63;5063869;28;20299;-62
2022/07/06 11:04:40;;;;;;;14.73;13.43;;;;;;;28.50;54.58;99422.97;5032100;28;20369;-65
2022/07/06 11:07:10;;;;;;;15.73;14.07;;;;;;;28.40;54.34;99415.09;5064084;28;20035;-63
2022/07/06 11:09:37;;;;;;;14.40;13.10;;;;;;;28.35;54.45;99406.72;5064397;28;20048;-63
2022/07/06 11:12:16;;;;;;;14.07;12.82;;;;;;;28.07;54.31;99376.69;5065607;28;20090;-63
2022/07/06 11:14:42;;;;;;;15.05;13.57;;;;;;;28.25;54.68;99413.97;5084736;28;20034;-64
2022/07/06 11:17:10;;;;;;;14.75;13.55;;;;;;;28.12;54.50;99381.56;5066106;28;20032;-65
2022/07/06 11:19:35;;;;;;;13.73;12.32;;;;;;;28.48;54.95;99410.81;5064504;28;20037;-63
2022/07/06 11:22:09;;;;;;;13.52;12.43;;;;;;;28.61;54.12;99411.22;5062914;28;20039;-64